Time;durP1;ratioP1;P1;durP2;ratioP2;P2;SDS_P1;SDS_P2;PMS_P1;PMS_P2;Temp;Humidity;BMP_temperature;BMP_pressure;BME280_temperature;BME280_humidity;BME280_pressure;Samples;Min_cycle;Max_cycle;Signal;HPM_P1;HPM_P2
2022/12/02 00:02:17;;;;;;;19.87;11.30;;;;;;;;;;5011036;28;20894;-69
2022/12/02 00:04:43;;;;;;;22.43;12.10;;;;;;;;;;5030453;28;20544;-68
2022/12/02 00:07:14;;;;;;;24.23;12.70;;;;;;;;;;5027930;28;20488;-69
2022/12/02 00:09:41;;;;;;;23.87;13.80;;;;;;;;;;5012560;28;20576;-69
2022/12/02 00:12:28;;;;;;;24.03;13.57;;;;;;;;;;5011970;28;20545;-69
2022/12/02 00:15:02;;;;;;;22.07;12.90;;;;;;;;;;5012022;28;20488;-68
2022/12/02 00:17:29;;;;;;;24.33;12.93;;;;;;;;;;5011209;28;20552;-69
2022/12/02 00:20:14;;;;;;;24.53;13.53;;;;;;;;;;5029318;28;20434;-68
2022/12/02 00:22:40;;;;;;;28.00;14.23;;;;;;;;;;5029526;28;20951;-70
2022/12/02 00:25:07;;;;;;;26.63;14.47;;;;;;;;;;5029936;28;20446;-69
2022/12/02 00:27:33;;;;;;;27.23;15.27;;;;;;;;;;5030672;28;20503;-68
2022/12/02 00:30:00;;;;;;;28.37;14.93;;;;;;;;;;5013100;28;20872;-68
2022/12/02 00:32:26;;;;;;;28.20;14.53;;;;;;;;;;5028540;28;20540;-69
2022/12/02 00:34:54;;;;;;;27.17;14.10;;;;;;;;;;5013655;28;20489;-68
2022/12/02 00:37:20;;;;;;;27.40;13.93;;;;;;;;;;5012203;28;20443;-68
2022/12/02 00:39:47;;;;;;;25.67;13.63;;;;;;;;;;5029042;28;20547;-68
2022/12/02 00:42:13;;;;;;;28.53;14.53;;;;;;;;;;5006856;28;20613;-69
2022/12/02 00:47:44;;;;;;;27.30;14.23;;;;;;;;;;5007692;28;20449;-69
2022/12/02 00:50:11;;;;;;;30.50;14.27;;;;;;;;;;5030123;28;21278;-69
2022/12/02 00:52:37;;;;;;;30.17;16.43;;;;;;;;;;5011731;28;20467;-68
2022/12/02 00:55:04;;;;;;;28.97;15.43;;;;;;;;;;5009168;28;20531;-69
2022/12/02 00:57:31;;;;;;;28.90;15.93;;;;;;;;;;5011374;28;20508;-68
2022/12/02 00:59:57;;;;;;;24.57;14.47;;;;;;;;;;5027658;28;20528;-69
2022/12/02 01:02:24;;;;;;;28.07;14.70;;;;;;;;;;5011400;28;20453;-68
2022/12/02 01:04:51;;;;;;;29.33;15.13;;;;;;;;;;5010882;28;20809;-69
2022/12/02 01:07:18;;;;;;;27.77;14.83;;;;;;;;;;5028507;28;20450;-69
2022/12/02 01:09:44;;;;;;;26.83;14.80;;;;;;;;;;5011421;28;20446;-68
2022/12/02 01:12:11;;;;;;;29.40;15.27;;;;;;;;;;5033698;28;20449;-68
2022/12/02 01:14:38;;;;;;;27.57;15.00;;;;;;;;;;5032278;28;20533;-68
2022/12/02 01:17:04;;;;;;;28.87;15.23;;;;;;;;;;5028756;28;20453;-69
2022/12/02 01:19:31;;;;;;;32.27;16.73;;;;;;;;;;5029045;28;20848;-68
2022/12/02 01:21:58;;;;;;;35.50;17.60;;;;;;;;;;4997313;28;20456;-68
2022/12/02 01:24:24;;;;;;;38.87;17.93;;;;;;;;;;5027136;28;20515;-68
2022/12/02 01:26:51;;;;;;;33.87;17.83;;;;;;;;;;5028503;28;20973;-68
2022/12/02 01:29:18;;;;;;;35.77;18.33;;;;;;;;;;5028120;28;20956;-69
2022/12/02 01:31:45;;;;;;;38.20;17.80;;;;;;;;;;4995181;28;21065;-68
2022/12/02 01:34:11;;;;;;;34.70;17.43;;;;;;;;;;4994598;28;20468;-69
2022/12/02 01:36:38;;;;;;;42.33;19.17;;;;;;;;;;5028370;28;20523;-68
2022/12/02 01:39:04;;;;;;;38.17;17.87;;;;;;;;;;5009890;28;20450;-68
2022/12/02 01:41:31;;;;;;;36.83;18.80;;;;;;;;;;5009656;28;20481;-69
2022/12/02 01:44:15;;;;;;;37.53;18.17;;;;;;;;;;4997402;28;20930;-68
2022/12/02 01:46:42;;;;;;;37.57;19.07;;;;;;;;;;5010331;28;20511;-68
2022/12/02 01:49:26;;;;;;;37.23;17.83;;;;;;;;;;5029030;28;20438;-68
2022/12/02 01:51:53;;;;;;;37.60;18.37;;;;;;;;;;5011849;28;20561;-68
2022/12/02 01:54:19;;;;;;;40.60;18.67;;;;;;;;;;5027750;28;20923;-69
2022/12/02 01:56:46;;;;;;;43.67;19.20;;;;;;;;;;5026924;28;20952;-68
2022/12/02 01:59:13;;;;;;;43.67;19.23;;;;;;;;;;4990407;28;20549;-68
2022/12/02 02:01:40;;;;;;;41.23;19.53;;;;;;;;;;5010559;28;20449;-68
2022/12/02 02:04:07;;;;;;;39.50;19.33;;;;;;;;;;5010393;28;20458;-68
2022/12/02 02:06:38;;;;;;;39.33;19.27;;;;;;;;;;5027215;28;20468;-70
2022/12/02 02:09:06;;;;;;;38.87;18.87;;;;;;;;;;5009156;28;20446;-69
2022/12/02 02:11:33;;;;;;;40.90;19.17;;;;;;;;;;5009787;28;20457;-68
2022/12/02 02:14:00;;;;;;;41.57;18.27;;;;;;;;;;5010242;28;20559;-68
2022/12/02 02:16:27;;;;;;;41.70;18.97;;;;;;;;;;5010251;28;20821;-68
2022/12/02 02:18:54;;;;;;;46.03;19.53;;;;;;;;;;5010149;28;20489;-69
2022/12/02 02:21:23;;;;;;;41.30;19.20;;;;;;;;;;5009309;28;20442;-68
2022/12/02 02:24:07;;;;;;;41.03;18.67;;;;;;;;;;5027294;28;20912;-68
2022/12/02 02:26:35;;;;;;;39.33;18.53;;;;;;;;;;5009437;28;20976;-68
2022/12/02 02:29:02;;;;;;;45.93;19.60;;;;;;;;;;5009762;28;20457;-68
2022/12/02 02:31:29;;;;;;;40.87;18.77;;;;;;;;;;5010113;28;20481;-68
2022/12/02 02:33:57;;;;;;;35.10;16.97;;;;;;;;;;4994799;28;20426;-68
2022/12/02 02:36:41;;;;;;;35.83;17.00;;;;;;;;;;4994781;28;20433;-69
2022/12/02 02:39:10;;;;;;;33.20;16.27;;;;;;;;;;4993482;28;20478;-68
2022/12/02 02:41:54;;;;;;;36.40;16.53;;;;;;;;;;5011324;28;20466;-68
2022/12/02 02:44:21;;;;;;;35.53;15.93;;;;;;;;;;5027294;28;20952;-68
2022/12/02 02:46:53;;;;;;;35.63;15.90;;;;;;;;;;5009698;28;20461;-68
2022/12/02 02:49:19;;;;;;;34.40;15.40;;;;;;;;;;5001276;28;20509;-68
2022/12/02 02:51:46;;;;;;;37.63;17.10;;;;;;;;;;4983956;28;20462;-68
2022/12/02 02:54:13;;;;;;;36.53;17.00;;;;;;;;;;4993072;28;21184;-68
2022/12/02 02:56:40;;;;;;;37.63;16.33;;;;;;;;;;5009416;28;20545;-68
2022/12/02 02:59:10;;;;;;;38.53;16.53;;;;;;;;;;5008845;28;20469;-68
2022/12/02 03:01:54;;;;;;;32.33;15.20;;;;;;;;;;4994644;28;20450;-68
2022/12/02 03:04:21;;;;;;;35.37;16.40;;;;;;;;;;5009966;28;20549;-68
2022/12/02 03:06:48;;;;;;;31.60;15.07;;;;;;;;;;5009040;28;20487;-68
2022/12/02 03:09:15;;;;;;;29.80;15.37;;;;;;;;;;5009127;28;20549;-68
2022/12/02 03:11:42;;;;;;;33.87;15.90;;;;;;;;;;5025867;28;20508;-69
2022/12/02 03:14:08;;;;;;;31.97;15.67;;;;;;;;;;4992693;28;20792;-68
2022/12/02 03:16:41;;;;;;;33.70;16.00;;;;;;;;;;5010236;28;20936;-68
2022/12/02 03:19:07;;;;;;;31.73;15.50;;;;;;;;;;5008806;28;20516;-68
2022/12/02 03:21:34;;;;;;;35.30;15.67;;;;;;;;;;5010032;28;20496;-68
2022/12/02 03:24:01;;;;;;;32.83;15.73;;;;;;;;;;5010296;28;20428;-68
2022/12/02 03:26:27;;;;;;;36.97;15.93;;;;;;;;;;5010212;28;20415;-68
2022/12/02 03:28:54;;;;;;;34.33;16.50;;;;;;;;;;5009911;28;20948;-68
2022/12/02 03:31:21;;;;;;;32.67;15.83;;;;;;;;;;4981040;28;20458;-68
2022/12/02 03:33:48;;;;;;;32.00;15.90;;;;;;;;;;4998078;28;20812;-68
2022/12/02 03:36:15;;;;;;;37.33;17.03;;;;;;;;;;5016661;28;20980;-68
2022/12/02 03:38:41;;;;;;;32.10;15.17;;;;;;;;;;5038909;28;21238;-68
2022/12/02 03:41:08;;;;;;;34.37;16.30;;;;;;;;;;5011563;28;20818;-68
2022/12/02 03:43:34;;;;;;;33.63;15.80;;;;;;;;;;5030595;28;20540;-68
2022/12/02 03:46:01;;;;;;;33.10;14.70;;;;;;;;;;5011773;28;20438;-68
2022/12/02 03:48:28;;;;;;;27.97;13.30;;;;;;;;;;5012755;28;20920;-68
2022/12/02 03:50:54;;;;;;;32.23;15.37;;;;;;;;;;5010903;28;20464;-68
2022/12/02 03:53:21;;;;;;;30.60;14.57;;;;;;;;;;5012906;28;20469;-68
2022/12/02 03:55:48;;;;;;;33.30;14.60;;;;;;;;;;4996154;28;20568;-68
2022/12/02 03:58:14;;;;;;;30.20;14.53;;;;;;;;;;5012889;28;20456;-68
2022/12/02 04:00:41;;;;;;;31.33;15.00;;;;;;;;;;5022573;28;20455;-68
2022/12/02 04:03:07;;;;;;;33.63;15.17;;;;;;;;;;5010574;28;20984;-68
2022/12/02 04:05:34;;;;;;;30.93;14.97;;;;;;;;;;5012536;28;20445;-68
2022/12/02 04:08:01;;;;;;;32.20;14.27;;;;;;;;;;5026350;28;20458;-71
2022/12/02 04:10:28;;;;;;;29.33;14.13;;;;;;;;;;5033303;28;20499;-71
2022/12/02 04:12:55;;;;;;;32.83;14.77;;;;;;;;;;5032256;28;20456;-68
2022/12/02 04:15:22;;;;;;;29.17;13.80;;;;;;;;;;5034732;28;20524;-71
2022/12/02 04:17:48;;;;;;;32.23;13.60;;;;;;;;;;5009042;28;20449;-69
2022/12/02 04:20:15;;;;;;;31.07;15.00;;;;;;;;;;5023418;28;20458;-69
2022/12/02 04:22:42;;;;;;;31.60;14.03;;;;;;;;;;5029777;28;21223;-69
2022/12/02 04:25:08;;;;;;;29.33;13.27;;;;;;;;;;5031017;28;20937;-69
2022/12/02 04:27:35;;;;;;;30.70;14.17;;;;;;;;;;5042540;28;20989;-70
2022/12/02 04:30:02;;;;;;;30.73;14.63;;;;;;;;;;5026226;28;20442;-72
2022/12/02 04:32:29;;;;;;;30.77;14.00;;;;;;;;;;5035196;28;20456;-73
2022/12/02 04:34:55;;;;;;;30.97;14.67;;;;;;;;;;5026131;28;20466;-71
2022/12/02 04:37:25;;;;;;;30.93;14.43;;;;;;;;;;5034693;28;20454;-73
2022/12/02 04:39:52;;;;;;;36.50;16.67;;;;;;;;;;5026597;28;20814;-71
2022/12/02 04:42:19;;;;;;;34.93;14.37;;;;;;;;;;5011139;28;20477;-70
2022/12/02 04:44:46;;;;;;;32.97;14.00;;;;;;;;;;5041843;28;20449;-70
2022/12/02 04:47:14;;;;;;;32.87;14.23;;;;;;;;;;5031749;28;20454;-68
2022/12/02 04:49:58;;;;;;;28.33;13.23;;;;;;;;;;5032658;28;20421;-70
2022/12/02 04:52:26;;;;;;;34.10;14.03;;;;;;;;;;5014109;28;20450;-72
2022/12/02 04:54:52;;;;;;;32.40;14.43;;;;;;;;;;4999966;28;21340;-70
2022/12/02 04:57:19;;;;;;;33.83;14.30;;;;;;;;;;5031926;28;20455;-67
2022/12/02 04:59:49;;;;;;;33.00;14.00;;;;;;;;;;5021365;28;20437;-70
2022/12/02 05:02:16;;;;;;;30.63;13.60;;;;;;;;;;5008030;28;20504;-72
2022/12/02 05:04:43;;;;;;;32.80;13.93;;;;;;;;;;5022288;28;20457;-73
2022/12/02 05:07:10;;;;;;;32.67;14.33;;;;;;;;;;5030108;28;20984;-71
2022/12/02 05:09:36;;;;;;;37.23;16.23;;;;;;;;;;5022021;28;20558;-70
2022/12/02 05:12:03;;;;;;;33.43;15.13;;;;;;;;;;5025208;28;20448;-73
2022/12/02 05:14:29;;;;;;;32.93;15.63;;;;;;;;;;5046493;28;20518;-73
2022/12/02 05:16:56;;;;;;;33.57;15.40;;;;;;;;;;4998285;28;20490;-72
2022/12/02 05:19:23;;;;;;;34.90;14.47;;;;;;;;;;5039206;28;20449;-75
2022/12/02 05:21:49;;;;;;;37.67;15.50;;;;;;;;;;5012735;28;20455;-72
2022/12/02 05:24:16;;;;;;;32.67;14.93;;;;;;;;;;5034941;28;20860;-72
2022/12/02 05:26:42;;;;;;;36.30;15.37;;;;;;;;;;5033185;28;20458;-72
2022/12/02 05:29:09;;;;;;;35.27;15.47;;;;;;;;;;5032258;28;21220;-67
2022/12/02 05:31:36;;;;;;;41.00;16.43;;;;;;;;;;5035700;28;21000;-69
2022/12/02 05:34:02;;;;;;;36.73;15.13;;;;;;;;;;5035332;28;20544;-68
2022/12/02 05:36:29;;;;;;;39.93;16.50;;;;;;;;;;5034181;28;20577;-71
2022/12/02 05:38:55;;;;;;;41.03;15.57;;;;;;;;;;5025806;28;21528;-71
2022/12/02 05:41:22;;;;;;;36.33;16.10;;;;;;;;;;5018814;28;20576;-71
2022/12/02 05:43:48;;;;;;;37.90;15.40;;;;;;;;;;5037034;28;20454;-71
2022/12/02 05:46:32;;;;;;;35.40;15.40;;;;;;;;;;5037185;28;20438;-71
2022/12/02 05:48:59;;;;;;;38.87;16.10;;;;;;;;;;5023871;28;20435;-71
2022/12/02 05:51:26;;;;;;;37.10;17.33;;;;;;;;;;5015537;28;20465;-72
2022/12/02 05:53:52;;;;;;;37.20;15.40;;;;;;;;;;5033679;28;20540;-72
2022/12/02 05:56:26;;;;;;;36.13;15.17;;;;;;;;;;5000148;28;20542;-72
2022/12/02 05:58:54;;;;;;;42.23;15.57;;;;;;;;;;5033135;28;20444;-72
2022/12/02 06:01:24;;;;;;;36.97;16.40;;;;;;;;;;5011937;28;21152;-68
2022/12/02 06:03:51;;;;;;;35.73;16.13;;;;;;;;;;4999581;28;20473;-69
2022/12/02 06:06:35;;;;;;;35.07;15.83;;;;;;;;;;5027431;28;20426;-69
2022/12/02 06:09:02;;;;;;;43.20;16.53;;;;;;;;;;5032763;28;20569;-68
2022/12/02 06:11:47;;;;;;;32.27;15.07;;;;;;;;;;5009232;28;20505;-68
2022/12/02 06:14:17;;;;;;;36.40;16.47;;;;;;;;;;4996929;28;20446;-67
2022/12/02 06:17:02;;;;;;;38.57;16.77;;;;;;;;;;5005724;28;20601;-75
2022/12/02 06:19:30;;;;;;;42.90;17.67;;;;;;;;;;5012373;28;20496;-69
2022/12/02 06:22:02;;;;;;;38.60;16.40;;;;;;;;;;5011015;28;20450;-70
2022/12/02 06:24:30;;;;;;;39.03;16.47;;;;;;;;;;5027072;28;20437;-70
2022/12/02 06:26:57;;;;;;;36.97;15.27;;;;;;;;;;5039953;28;20453;-69
2022/12/02 06:29:23;;;;;;;39.00;16.50;;;;;;;;;;5016616;28;20469;-70
2022/12/02 06:31:50;;;;;;;42.63;16.53;;;;;;;;;;5029336;28;20452;-71
2022/12/02 06:34:20;;;;;;;42.67;16.10;;;;;;;;;;4993913;28;20556;-71
2022/12/02 06:36:47;;;;;;;42.93;15.73;;;;;;;;;;4991448;28;20482;-71
2022/12/02 06:39:15;;;;;;;39.47;16.73;;;;;;;;;;5008634;28;20465;-71
2022/12/02 06:41:41;;;;;;;41.83;17.00;;;;;;;;;;4991005;28;20467;-71
2022/12/02 06:47:31;;;;;;;45.73;17.20;;;;;;;;;;5008693;28;21274;-70
2022/12/02 06:50:18;;;;;;;46.13;17.13;;;;;;;;;;5015014;28;20473;-71
2022/12/02 06:52:45;;;;;;;39.17;16.33;;;;;;;;;;5026471;28;20456;-70
2022/12/02 06:55:16;;;;;;;40.37;16.90;;;;;;;;;;5011501;28;20445;-69
2022/12/02 06:57:42;;;;;;;41.83;17.07;;;;;;;;;;5023754;28;20453;-70
2022/12/02 07:00:09;;;;;;;39.53;16.97;;;;;;;;;;5045030;28;20483;-70
2022/12/02 07:02:36;;;;;;;45.73;17.63;;;;;;;;;;5019285;28;20497;-72
2022/12/02 07:05:03;;;;;;;41.23;16.63;;;;;;;;;;5006903;28;20418;-69
2022/12/02 07:07:47;;;;;;;48.93;17.33;;;;;;;;;;5034683;28;20448;-67
2022/12/02 07:10:29;;;;;;;49.63;20.17;;;;;;;;;;5045286;28;20819;-70
2022/12/02 07:12:56;;;;;;;48.53;19.07;;;;;;;;;;5026705;28;20437;-70
2022/12/02 07:15:27;;;;;;;46.67;18.90;;;;;;;;;;5009985;28;20500;-66
2022/12/02 07:17:57;;;;;;;45.93;18.40;;;;;;;;;;5005903;28;20442;-68
2022/12/02 07:20:24;;;;;;;54.33;18.97;;;;;;;;;;5026333;28;21241;-69
2022/12/02 07:22:55;;;;;;;41.63;17.53;;;;;;;;;;5037765;28;20481;-68
2022/12/02 07:25:48;;;;;;;51.10;18.57;;;;;;;;;;5023109;28;20449;-68
2022/12/02 07:28:15;;;;;;;46.57;18.50;;;;;;;;;;5026757;28;20568;-68
2022/12/02 07:30:41;;;;;;;47.27;17.87;;;;;;;;;;5033673;28;21222;-68
2022/12/02 07:33:08;;;;;;;54.27;18.77;;;;;;;;;;5023487;28;20441;-69
2022/12/02 07:35:35;;;;;;;52.80;18.87;;;;;;;;;;5022171;28;20536;-71
2022/12/02 07:38:01;;;;;;;53.43;19.73;;;;;;;;;;5031386;28;20437;-69
2022/12/02 07:40:28;;;;;;;53.43;19.27;;;;;;;;;;5021215;28;20466;-74
2022/12/02 07:43:12;;;;;;;48.83;17.63;;;;;;;;;;5022088;28;20466;-73
2022/12/02 07:45:38;;;;;;;53.63;19.20;;;;;;;;;;4989716;28;20516;-70
2022/12/02 07:48:05;;;;;;;55.37;19.50;;;;;;;;;;5019719;28;20496;-69
2022/12/02 07:50:32;;;;;;;47.27;18.30;;;;;;;;;;5023311;28;20441;-68
2022/12/02 07:52:59;;;;;;;51.30;18.80;;;;;;;;;;4989960;28;20556;-69
2022/12/02 07:55:25;;;;;;;45.47;17.47;;;;;;;;;;5006406;28;20505;-69
2022/12/02 07:57:52;;;;;;;46.17;17.47;;;;;;;;;;5023656;28;20438;-68
2022/12/02 08:00:19;;;;;;;45.53;16.20;;;;;;;;;;5019583;28;20548;-69
2022/12/02 08:02:46;;;;;;;43.47;16.60;;;;;;;;;;5024727;28;20450;-69
2022/12/02 08:05:12;;;;;;;46.07;17.83;;;;;;;;;;5006845;28;20569;-69
2022/12/02 08:07:41;;;;;;;47.40;16.57;;;;;;;;;;5006550;28;20445;-69
2022/12/02 08:10:08;;;;;;;50.53;17.87;;;;;;;;;;5024038;28;20430;-72
2022/12/02 08:12:35;;;;;;;49.20;17.70;;;;;;;;;;5006733;28;20456;-71
2022/12/02 08:15:02;;;;;;;45.07;16.83;;;;;;;;;;5006882;28;20444;-71
2022/12/02 08:17:46;;;;;;;47.83;17.50;;;;;;;;;;5012274;28;20763;-72
2022/12/02 08:20:13;;;;;;;42.30;16.87;;;;;;;;;;5010638;28;21364;-72
2022/12/02 08:22:39;;;;;;;46.40;18.03;;;;;;;;;;4998682;28;20477;-73
2022/12/02 08:25:06;;;;;;;43.97;17.40;;;;;;;;;;5010285;28;20446;-75
2022/12/02 08:27:33;;;;;;;44.10;17.00;;;;;;;;;;5005516;28;21169;-74
2022/12/02 08:30:19;;;;;;;42.70;16.87;;;;;;;;;;5021369;28;20451;-75
2022/12/02 08:32:45;;;;;;;38.93;15.53;;;;;;;;;;5020027;28;20466;-75
2022/12/02 08:35:12;;;;;;;42.77;17.07;;;;;;;;;;5027466;28;20456;-75
2022/12/02 08:37:39;;;;;;;38.70;16.30;;;;;;;;;;5026415;28;21099;-73
2022/12/02 08:40:06;;;;;;;43.67;16.13;;;;;;;;;;5008874;28;20446;-77
2022/12/02 08:42:33;;;;;;;42.70;16.30;;;;;;;;;;5007165;28;20478;-76
2022/12/02 08:45:00;;;;;;;41.03;16.07;;;;;;;;;;5029387;28;20449;-75
2022/12/02 08:47:26;;;;;;;39.27;16.87;;;;;;;;;;5011562;28;20445;-74
2022/12/02 08:49:53;;;;;;;44.07;16.97;;;;;;;;;;4998411;28;20456;-75
2022/12/02 08:52:20;;;;;;;45.03;18.50;;;;;;;;;;5035776;28;20476;-76
2022/12/02 08:54:47;;;;;;;47.03;17.17;;;;;;;;;;5046131;28;20929;-73
2022/12/02 08:57:14;;;;;;;42.17;17.17;;;;;;;;;;5041352;28;20470;-76
2022/12/02 08:59:41;;;;;;;44.43;16.97;;;;;;;;;;5010085;28;20443;-74
2022/12/02 09:02:08;;;;;;;43.13;17.03;;;;;;;;;;5015707;28;20464;-75
2022/12/02 09:04:35;;;;;;;43.63;17.93;;;;;;;;;;5047554;28;20433;-71
2022/12/02 09:07:01;;;;;;;45.07;17.70;;;;;;;;;;5031624;28;20445;-72
2022/12/02 09:09:28;;;;;;;54.87;19.13;;;;;;;;;;5033634;28;20529;-72
2022/12/02 09:11:55;;;;;;;49.37;17.93;;;;;;;;;;5036360;28;20441;-72
2022/12/02 09:14:22;;;;;;;48.03;18.93;;;;;;;;;;5045548;28;20441;-72
2022/12/02 09:16:49;;;;;;;43.80;17.47;;;;;;;;;;5043785;28;20572;-74
2022/12/02 09:19:16;;;;;;;42.37;17.87;;;;;;;;;;5040313;28;20476;-74
2022/12/02 09:21:42;;;;;;;45.43;17.57;;;;;;;;;;5025066;28;20437;-72
2022/12/02 09:24:09;;;;;;;39.17;16.57;;;;;;;;;;5018850;28;20485;-73
2022/12/02 09:26:36;;;;;;;36.17;16.07;;;;;;;;;;5045244;28;20417;-72
2022/12/02 09:29:03;;;;;;;40.37;15.70;;;;;;;;;;5031700;28;20576;-74
2022/12/02 09:31:30;;;;;;;40.73;15.60;;;;;;;;;;5027113;28;20524;-73
2022/12/02 09:33:57;;;;;;;40.50;16.93;;;;;;;;;;5026857;28;20426;-72
2022/12/02 09:36:24;;;;;;;43.13;17.10;;;;;;;;;;5038303;28;20464;-70
2022/12/02 09:38:51;;;;;;;41.77;16.70;;;;;;;;;;5031722;28;20508;-71
2022/12/02 09:41:18;;;;;;;39.03;16.93;;;;;;;;;;5020094;28;20484;-71
2022/12/02 09:43:45;;;;;;;36.73;15.97;;;;;;;;;;5037258;28;20449;-75
2022/12/02 09:46:12;;;;;;;37.33;16.10;;;;;;;;;;5040502;28;20521;-75
2022/12/02 09:48:39;;;;;;;38.27;16.30;;;;;;;;;;5025625;28;20446;-75
2022/12/02 09:51:06;;;;;;;38.00;15.00;;;;;;;;;;5036844;28;20442;-71
2022/12/02 09:53:33;;;;;;;42.30;15.87;;;;;;;;;;4994122;28;20444;-72
2022/12/02 09:56:00;;;;;;;36.13;16.10;;;;;;;;;;5024891;28;20965;-74
2022/12/02 09:58:27;;;;;;;40.53;17.47;;;;;;;;;;5033580;28;20499;-72
2022/12/02 10:00:54;;;;;;;42.53;16.30;;;;;;;;;;5028285;28;20441;-72
2022/12/02 10:03:22;;;;;;;41.07;15.83;;;;;;;;;;5020496;28;20457;-74
2022/12/02 10:05:48;;;;;;;35.40;16.10;;;;;;;;;;5022322;28;20420;-74
2022/12/02 10:08:25;;;;;;;38.47;16.80;;;;;;;;;;5008213;28;20503;-74
2022/12/02 10:10:52;;;;;;;33.90;14.77;;;;;;;;;;5025796;28;20470;-74
2022/12/02 10:13:19;;;;;;;32.27;14.90;;;;;;;;;;5040564;28;20448;-74
2022/12/02 10:15:46;;;;;;;32.90;13.37;;;;;;;;;;5023835;28;20459;-71
2022/12/02 10:18:17;;;;;;;32.27;13.47;;;;;;;;;;5008266;28;20488;-71
2022/12/02 10:20:43;;;;;;;30.03;13.77;;;;;;;;;;5006837;28;20446;-72
2022/12/02 10:23:12;;;;;;;28.53;12.83;;;;;;;;;;5023817;28;20786;-74
2022/12/02 10:25:40;;;;;;;32.87;12.80;;;;;;;;;;5006369;28;20472;-70
2022/12/02 10:28:17;;;;;;;34.40;14.87;;;;;;;;;;5014109;28;20442;-76
2022/12/02 10:30:47;;;;;;;35.23;14.70;;;;;;;;;;5017358;28;20429;-76
2022/12/02 10:33:15;;;;;;;35.07;15.10;;;;;;;;;;5028674;28;21017;-74
2022/12/02 10:35:46;;;;;;;35.43;15.43;;;;;;;;;;5046415;28;20508;-77
2022/12/02 10:38:40;;;;;;;32.23;14.70;;;;;;;;;;5029867;28;20517;-75
2022/12/02 10:41:13;;;;;;;31.37;13.67;;;;;;;;;;5027214;28;20528;-74
2022/12/02 10:44:00;;;;;;;33.73;14.20;;;;;;;;;;5045664;28;20831;-73
2022/12/02 10:46:27;;;;;;;40.13;15.43;;;;;;;;;;5028083;28;21058;-77
2022/12/02 10:48:54;;;;;;;39.97;16.10;;;;;;;;;;5028537;28;20480;-75
2022/12/02 10:51:21;;;;;;;37.83;15.97;;;;;;;;;;5033583;28;21035;-77
2022/12/02 10:53:49;;;;;;;43.00;16.17;;;;;;;;;;5011034;28;20512;-79
2022/12/02 10:56:22;;;;;;;37.47;15.97;;;;;;;;;;5027636;28;20696;-76
2022/12/02 10:58:50;;;;;;;41.83;15.70;;;;;;;;;;5029884;28;20429;-77
2022/12/02 11:01:18;;;;;;;41.97;16.17;;;;;;;;;;5033141;28;20473;-78
2022/12/02 11:03:45;;;;;;;38.40;15.67;;;;;;;;;;5027516;28;20437;-75
2022/12/02 11:06:16;;;;;;;36.97;16.27;;;;;;;;;;5028103;28;20524;-78
2022/12/02 11:08:46;;;;;;;32.60;13.63;;;;;;;;;;5024760;28;20541;-75
2022/12/02 11:11:14;;;;;;;41.70;15.77;;;;;;;;;;5028484;28;20468;-75
2022/12/02 11:13:59;;;;;;;35.53;15.53;;;;;;;;;;5045766;28;20515;-78
2022/12/02 11:16:26;;;;;;;42.43;17.13;;;;;;;;;;5024520;28;20471;-74
2022/12/02 11:19:02;;;;;;;51.50;19.63;;;;;;;;;;5043817;28;20788;-75
2022/12/02 11:21:31;;;;;;;47.63;18.73;;;;;;;;;;5045747;28;20433;-75
2022/12/02 11:24:19;;;;;;;38.30;15.53;;;;;;;;;;5027951;28;20457;-78
2022/12/02 11:27:04;;;;;;;33.50;15.00;;;;;;;;;;5043968;28;20792;-76
2022/12/02 11:29:36;;;;;;;33.67;14.17;;;;;;;;;;5008421;28;20433;-79
2022/12/02 11:32:23;;;;;;;34.87;16.17;;;;;;;;;;5028087;28;20440;-79
2022/12/02 11:34:50;;;;;;;30.10;13.80;;;;;;;;;;5027548;28;20449;-78
2022/12/02 11:37:35;;;;;;;37.27;15.50;;;;;;;;;;5039652;28;20497;-77
2022/12/02 11:40:25;;;;;;;34.73;14.57;;;;;;;;;;5036760;28;20432;-78
2022/12/02 11:42:52;;;;;;;38.87;16.27;;;;;;;;;;5024893;28;20470;-74
2022/12/02 11:45:18;;;;;;;23.20;10.10;;;;;;;;;;5027664;28;20519;-69
2022/12/02 11:47:54;;;;;;;20.17;10.60;;;;;;;;;;5043559;28;21178;-71
2022/12/02 11:50:39;;;;;;;20.70;9.77;;;;;;;;;;5044880;28;20421;-70
2022/12/02 11:53:10;;;;;;;27.00;12.03;;;;;;;;;;5047945;28;20486;-72
2022/12/02 11:55:41;;;;;;;23.73;11.97;;;;;;;;;;5031306;28;20456;-70
2022/12/02 11:58:17;;;;;;;25.87;12.00;;;;;;;;;;5024820;28;21439;-74
2022/12/02 12:01:11;;;;;;;22.47;10.87;;;;;;;;;;5025190;28;20929;-72
2022/12/02 12:03:44;;;;;;;22.03;10.67;;;;;;;;;;5044487;28;21325;-71
2022/12/02 12:06:12;;;;;;;19.57;9.70;;;;;;;;;;4991801;28;20446;-72
2022/12/02 12:08:41;;;;;;;19.90;10.17;;;;;;;;;;5022783;28;20472;-73
2022/12/02 12:11:15;;;;;;;21.30;10.87;;;;;;;;;;5018071;28;20449;-73
2022/12/02 12:14:01;;;;;;;20.77;10.73;;;;;;;;;;5034310;28;20437;-70
2022/12/02 12:16:31;;;;;;;23.47;11.47;;;;;;;;;;5028147;28;20444;-70
2022/12/02 12:19:00;;;;;;;24.03;12.37;;;;;;;;;;5043163;28;20523;-71
2022/12/02 12:21:30;;;;;;;23.50;12.70;;;;;;;;;;5029613;28;20957;-75
2022/12/02 12:24:25;;;;;;;24.03;12.57;;;;;;;;;;5040727;28;20508;-70
2022/12/02 12:27:00;;;;;;;27.40;12.87;;;;;;;;;;5035523;28;20477;-70
2022/12/02 12:29:30;;;;;;;25.57;12.77;;;;;;;;;;5034396;28;20440;-72
2022/12/02 12:32:14;;;;;;;27.50;12.90;;;;;;;;;;5047708;28;20564;-72
2022/12/02 12:34:41;;;;;;;23.50;12.03;;;;;;;;;;5047502;28;20437;-71
2022/12/02 12:37:09;;;;;;;22.80;12.13;;;;;;;;;;5029464;28;20495;-70
2022/12/02 12:39:35;;;;;;;23.37;11.57;;;;;;;;;;5046996;28;20442;-70
2022/12/02 12:42:02;;;;;;;20.57;11.40;;;;;;;;;;5046712;28;21033;-70
2022/12/02 12:44:47;;;;;;;23.97;11.63;;;;;;;;;;5014557;28;20465;-71
2022/12/02 12:47:15;;;;;;;25.03;12.20;;;;;;;;;;5046820;28;20496;-71
2022/12/02 12:49:41;;;;;;;25.77;12.27;;;;;;;;;;5045769;28;20503;-73
2022/12/02 12:52:08;;;;;;;21.40;11.63;;;;;;;;;;5029308;28;20974;-72
2022/12/02 12:54:35;;;;;;;23.63;12.57;;;;;;;;;;5046895;28;20436;-72
2022/12/02 12:57:20;;;;;;;24.33;12.40;;;;;;;;;;5047014;28;20515;-71
2022/12/02 12:59:46;;;;;;;22.37;11.77;;;;;;;;;;5046783;28;20951;-75
2022/12/02 13:02:13;;;;;;;26.13;12.80;;;;;;;;;;5029739;28;20495;-75
2022/12/02 13:04:40;;;;;;;26.33;12.37;;;;;;;;;;5046039;28;20473;-70
2022/12/02 13:07:07;;;;;;;25.17;11.93;;;;;;;;;;5046135;28;20433;-74
2022/12/02 13:09:34;;;;;;;24.60;11.93;;;;;;;;;;5028964;28;20449;-73
2022/12/02 13:12:01;;;;;;;29.23;13.43;;;;;;;;;;5045733;28;20452;-71
2022/12/02 13:14:28;;;;;;;25.63;12.77;;;;;;;;;;5045834;28;20445;-73
2022/12/02 13:16:55;;;;;;;25.77;12.13;;;;;;;;;;5028473;28;20477;-71
2022/12/02 13:19:22;;;;;;;23.20;11.93;;;;;;;;;;5027664;28;20437;-71
2022/12/02 13:21:49;;;;;;;29.90;13.17;;;;;;;;;;5027563;28;20575;-72
2022/12/02 13:24:16;;;;;;;31.17;13.83;;;;;;;;;;5028588;28;20430;-73
2022/12/02 13:26:42;;;;;;;29.60;13.60;;;;;;;;;;5045771;28;20448;-73
2022/12/02 13:29:09;;;;;;;25.17;12.00;;;;;;;;;;5017027;28;20477;-71
2022/12/02 13:31:38;;;;;;;27.00;12.60;;;;;;;;;;5045718;28;20438;-71
2022/12/02 13:34:05;;;;;;;25.23;12.30;;;;;;;;;;5045667;28;20530;-72
2022/12/02 13:36:32;;;;;;;32.33;13.07;;;;;;;;;;5028344;28;20441;-72
2022/12/02 13:38:59;;;;;;;26.77;12.97;;;;;;;;;;5009809;28;20485;-72
2022/12/02 13:41:32;;;;;;;26.27;12.33;;;;;;;;;;5045053;28;20953;-73
2022/12/02 13:44:21;;;;;;;29.37;12.47;;;;;;;;;;5040635;28;20433;-72
2022/12/02 13:46:52;;;;;;;32.67;13.87;;;;;;;;;;5038546;28;20418;-73
2022/12/02 13:49:36;;;;;;;23.83;11.60;;;;;;;;;;5043796;28;20425;-71
2022/12/02 13:52:02;;;;;;;27.60;13.00;;;;;;;;;;5028629;28;20524;-70
2022/12/02 13:54:29;;;;;;;26.57;12.77;;;;;;;;;;5028289;28;20544;-72
2022/12/02 13:56:56;;;;;;;26.80;12.60;;;;;;;;;;5027937;28;20510;-72
2022/12/02 13:59:23;;;;;;;30.73;13.90;;;;;;;;;;5027662;28;20441;-74
2022/12/02 14:01:50;;;;;;;32.27;14.17;;;;;;;;;;5037514;28;20529;-73
2022/12/02 14:04:17;;;;;;;35.60;14.43;;;;;;;;;;5041074;28;20976;-72
2022/12/02 14:06:43;;;;;;;31.03;14.23;;;;;;;;;;5029070;28;20475;-72
2022/12/02 14:09:10;;;;;;;27.30;13.70;;;;;;;;;;5044908;28;20785;-70
2022/12/02 14:11:37;;;;;;;33.83;15.73;;;;;;;;;;5027030;28;21217;-72
2022/12/02 14:14:05;;;;;;;28.67;14.40;;;;;;;;;;5046032;28;20444;-71
2022/12/02 14:16:49;;;;;;;33.77;14.17;;;;;;;;;;5045831;28;20429;-74
2022/12/02 14:19:16;;;;;;;33.80;15.77;;;;;;;;;;5011432;28;20427;-72
2022/12/02 14:22:01;;;;;;;34.63;15.80;;;;;;;;;;5030338;28;20426;-71
2022/12/02 14:24:28;;;;;;;28.43;13.00;;;;;;;;;;5046297;28;20433;-74
2022/12/02 14:27:12;;;;;;;28.43;13.03;;;;;;;;;;5046007;28;20514;-73
2022/12/02 14:29:38;;;;;;;31.30;13.17;;;;;;;;;;5046490;28;20528;-71
2022/12/02 14:32:05;;;;;;;30.37;13.30;;;;;;;;;;5043178;28;20522;-71
2022/12/02 14:34:32;;;;;;;29.43;13.50;;;;;;;;;;5047276;28;20843;-72
2022/12/02 14:36:59;;;;;;;29.23;13.00;;;;;;;;;;5028100;28;20962;-72